sensor_id;sensor_type;location;lat;lon;timestamp;pressure;altitude;pressure_sealevel;temperature;humidity
13478;BME280;12598;62.382;17.344;2024-02-21T00:00:10;100297.97;;;16.60;23.64
13478;BME280;12598;62.382;17.344;2024-02-21T00:01:16;100303.53;;;16.67;23.80
13478;BME280;12598;62.382;17.344;2024-02-21T00:02:18;100306.09;;;16.68;23.46
13478;BME280;12598;62.382;17.344;2024-02-21T00:03:20;100308.75;;;16.68;23.64
13478;BME280;12598;62.382;17.344;2024-02-21T00:04:22;100297.69;;;16.63;23.91
13478;BME280;12598;62.382;17.344;2024-02-21T00:05:24;100301.03;;;16.65;23.61
13478;BME280;12598;62.382;17.344;2024-02-21T00:06:26;100293.72;;;16.67;23.65
13478;BME280;12598;62.382;17.344;2024-02-21T00:07:28;100289.38;;;16.66;23.71
13478;BME280;12598;62.382;17.344;2024-02-21T00:08:30;100273.78;;;16.62;23.81
13478;BME280;12598;62.382;17.344;2024-02-21T00:09:32;100278.69;;;16.66;23.80
13478;BME280;12598;62.382;17.344;2024-02-21T00:10:33;100274.34;;;16.65;23.81
13478;BME280;12598;62.382;17.344;2024-02-21T00:11:36;100280.50;;;16.66;23.95
13478;BME280;12598;62.382;17.344;2024-02-21T00:12:38;100273.97;;;16.60;23.75
13478;BME280;12598;62.382;17.344;2024-02-21T00:13:40;100278.00;;;16.64;23.79
13478;BME280;12598;62.382;17.344;2024-02-21T00:14:42;100271.00;;;16.63;24.08
13478;BME280;12598;62.382;17.344;2024-02-21T00:15:45;100265.09;;;16.60;23.86
13478;BME280;12598;62.382;17.344;2024-02-21T00:16:46;100270.81;;;16.65;24.15
13478;BME280;12598;62.382;17.344;2024-02-21T00:17:48;100259.75;;;16.60;24.02
13478;BME280;12598;62.382;17.344;2024-02-21T00:18:50;100267.34;;;16.64;23.73
13478;BME280;12598;62.382;17.344;2024-02-21T00:19:52;100274.34;;;16.65;23.73
13478;BME280;12598;62.382;17.344;2024-02-21T00:20:54;100278.84;;;16.65;23.64
13478;BME280;12598;62.382;17.344;2024-02-21T00:21:56;100281.66;;;16.63;23.96
13478;BME280;12598;62.382;17.344;2024-02-21T00:22:57;100278.00;;;16.64;23.75
13478;BME280;12598;62.382;17.344;2024-02-21T00:23:59;100278.00;;;16.64;23.86
13478;BME280;12598;62.382;17.344;2024-02-21T00:25:01;100278.84;;;16.65;24.16
13478;BME280;12598;62.382;17.344;2024-02-21T00:26:03;100272.66;;;16.64;23.81
13478;BME280;12598;62.382;17.344;2024-02-21T00:27:05;100267.34;;;16.64;23.87
13478;BME280;12598;62.382;17.344;2024-02-21T00:28:07;100272.66;;;16.64;24.16
13478;BME280;12598;62.382;17.344;2024-02-21T00:29:08;100256.53;;;16.56;23.85
13478;BME280;12598;62.382;17.344;2024-02-21T00:30:11;100253.88;;;16.56;23.83
13478;BME280;12598;62.382;17.344;2024-02-21T00:31:12;100271.00;;;16.63;24.20
13478;BME280;12598;62.382;17.344;2024-02-21T00:32:14;100271.97;;;16.62;24.03
13478;BME280;12598;62.382;17.344;2024-02-21T00:33:17;100271.00;;;16.63;23.97
13478;BME280;12598;62.382;17.344;2024-02-21T00:34:19;100268.31;;;16.63;24.02
13478;BME280;12598;62.382;17.344;2024-02-21T00:35:21;100257.66;;;16.63;23.88
13478;BME280;12598;62.382;17.344;2024-02-21T00:36:23;100254.97;;;16.63;23.88
13478;BME280;12598;62.382;17.344;2024-02-21T00:37:25;100260.31;;;16.63;24.06
13478;BME280;12598;62.382;17.344;2024-02-21T00:38:27;100260.31;;;16.63;24.17
13478;BME280;12598;62.382;17.344;2024-02-21T00:39:29;100259.47;;;16.63;24.38
13478;BME280;12598;62.382;17.344;2024-02-21T00:40:31;100257.66;;;16.63;24.16
13478;BME280;12598;62.382;17.344;2024-02-21T00:41:32;100249.63;;;16.63;24.21
13478;BME280;12598;62.382;17.344;2024-02-21T00:42:34;100260.31;;;16.63;24.09
13478;BME280;12598;62.382;17.344;2024-02-21T00:43:36;100242.94;;;16.59;24.31
13478;BME280;12598;62.382;17.344;2024-02-21T00:44:38;100242.94;;;16.59;24.37
13478;BME280;12598;62.382;17.344;2024-02-21T00:45:40;100250.63;;;16.62;24.38
13478;BME280;12598;62.382;17.344;2024-02-21T00:46:41;100238.72;;;16.57;24.02
13478;BME280;12598;62.382;17.344;2024-02-21T00:47:44;100248.78;;;16.63;24.52
13478;BME280;12598;62.382;17.344;2024-02-21T00:48:45;100258.47;;;16.64;24.14
13478;BME280;12598;62.382;17.344;2024-02-21T00:49:47;100248.78;;;16.63;24.52
13478;BME280;12598;62.382;17.344;2024-02-21T00:50:49;100249.63;;;16.63;24.20
13478;BME280;12598;62.382;17.344;2024-02-21T00:51:51;100241.78;;;16.62;24.35
13478;BME280;12598;62.382;17.344;2024-02-21T00:52:53;100241.94;;;16.60;24.50
13478;BME280;12598;62.382;17.344;2024-02-21T00:53:54;100209.88;;;16.43;24.27
13478;BME280;12598;62.382;17.344;2024-02-21T00:54:56;100234.19;;;16.57;24.10
13478;BME280;12598;62.382;17.344;2024-02-21T00:55:58;100245.28;;;16.62;24.20
13478;BME280;12598;62.382;17.344;2024-02-21T00:57:00;100226.50;;;16.54;24.59
13478;BME280;12598;62.382;17.344;2024-02-21T00:58:02;100236.44;;;16.62;24.65
13478;BME280;12598;62.382;17.344;2024-02-21T00:59:04;100234.63;;;16.62;24.48
13478;BME280;12598;62.382;17.344;2024-02-21T01:00:06;100231.94;;;16.62;24.29
13478;BME280;12598;62.382;17.344;2024-02-21T01:01:09;100226.59;;;16.62;24.54
13478;BME280;12598;62.382;17.344;2024-02-21T01:02:12;100228.28;;;16.63;24.57
13478;BME280;12598;62.382;17.344;2024-02-21T01:03:14;100227.44;;;16.63;24.35
13478;BME280;12598;62.382;17.344;2024-02-21T01:04:16;100224.94;;;16.61;24.35
13478;BME280;12598;62.382;17.344;2024-02-21T01:05:18;100236.13;;;16.65;24.61
13478;BME280;12598;62.382;17.344;2024-02-21T01:06:21;100229.28;;;16.62;24.71
13478;BME280;12598;62.382;17.344;2024-02-21T01:07:23;100220.59;;;16.60;24.65
13478;BME280;12598;62.382;17.344;2024-02-21T01:08:24;100230.97;;;16.63;24.37
13478;BME280;12598;62.382;17.344;2024-02-21T01:09:26;100224.06;;;16.61;24.52
13478;BME280;12598;62.382;17.344;2024-02-21T01:10:28;100218.19;;;16.57;24.43
13478;BME280;12598;62.382;17.344;2024-02-21T01:11:30;100222.94;;;16.63;24.66
13478;BME280;12598;62.382;17.344;2024-02-21T01:12:32;100222.94;;;16.63;24.63
13478;BME280;12598;62.382;17.344;2024-02-21T01:13:34;100222.94;;;16.63;24.58
13478;BME280;12598;62.382;17.344;2024-02-21T01:14:35;100225.63;;;16.63;24.54
13478;BME280;12598;62.382;17.344;2024-02-21T01:15:37;100221.28;;;16.62;24.45
13478;BME280;12598;62.382;17.344;2024-02-21T01:16:39;100221.28;;;16.62;24.83
13478;BME280;12598;62.382;17.344;2024-02-21T01:17:41;100193.03;;;16.42;24.70
13478;BME280;12598;62.382;17.344;2024-02-21T01:18:44;100222.09;;;16.63;24.65
13478;BME280;12598;62.382;17.344;2024-02-21T01:19:46;100222.09;;;16.63;24.81
13478;BME280;12598;62.382;17.344;2024-02-21T01:20:48;100215.75;;;16.64;24.35
13478;BME280;12598;62.382;17.344;2024-02-21T01:21:50;100217.59;;;16.63;24.68
13478;BME280;12598;62.382;17.344;2024-02-21T01:22:52;100221.09;;;16.64;24.63
13478;BME280;12598;62.382;17.344;2024-02-21T01:23:54;100218.44;;;16.64;24.77
13478;BME280;12598;62.382;17.344;2024-02-21T01:24:56;100217.59;;;16.63;24.54
13478;BME280;12598;62.382;17.344;2024-02-21T01:25:57;100213.09;;;16.64;24.66
13478;BME280;12598;62.382;17.344;2024-02-21T01:26:59;100212.28;;;16.63;24.93
13478;BME280;12598;62.382;17.344;2024-02-21T01:28:01;100212.28;;;16.63;24.53
13478;BME280;12598;62.382;17.344;2024-02-21T01:29:03;100215.94;;;16.62;24.70
13478;BME280;12598;62.382;17.344;2024-02-21T01:30:05;100217.59;;;16.63;24.73
13478;BME280;12598;62.382;17.344;2024-02-21T01:31:07;100207.75;;;16.64;24.48
13478;BME280;12598;62.382;17.344;2024-02-21T01:32:10;100198.94;;;16.63;24.69
13478;BME280;12598;62.382;17.344;2024-02-21T01:33:12;100208.63;;;16.64;24.50
13478;BME280;12598;62.382;17.344;2024-02-21T01:34:14;100201.91;;;16.60;24.92
13478;BME280;12598;62.382;17.344;2024-02-21T01:35:15;100203.28;;;16.64;24.92
13478;BME280;12598;62.382;17.344;2024-02-21T01:36:17;100203.28;;;16.64;24.64
13478;BME280;12598;62.382;17.344;2024-02-21T01:37:20;100201.59;;;16.63;24.92
13478;BME280;12598;62.382;17.344;2024-02-21T01:38:21;100191.75;;;16.64;24.61
13478;BME280;12598;62.382;17.344;2024-02-21T01:39:23;100197.94;;;16.64;24.74
13478;BME280;12598;62.382;17.344;2024-02-21T01:40:25;100186.88;;;16.59;24.96
13478;BME280;12598;62.382;17.344;2024-02-21T01:41:30;100188.16;;;16.55;25.40
13478;BME280;12598;62.382;17.344;2024-02-21T01:42:32;100191.59;;;16.65;25.12
13478;BME280;12598;62.382;17.344;2024-02-21T01:43:33;100203.28;;;16.64;24.91
13478;BME280;12598;62.382;17.344;2024-02-21T01:44:35;100194.41;;;16.64;25.14
13478;BME280;12598;62.382;17.344;2024-02-21T01:45:39;100199.63;;;16.65;24.80
13478;BME280;12598;62.382;17.344;2024-02-21T01:46:42;100196.09;;;16.65;24.72
13478;BME280;12598;62.382;17.344;2024-02-21T01:47:44;100193.41;;;16.65;24.75
13478;BME280;12598;62.382;17.344;2024-02-21T01:48:45;100195.28;;;16.64;25.10
13478;BME280;12598;62.382;17.344;2024-02-21T01:49:49;100191.75;;;16.64;25.11
13478;BME280;12598;62.382;17.344;2024-02-21T01:50:52;100178.03;;;16.59;24.89
13478;BME280;12598;62.382;17.344;2024-02-21T01:51:54;100188.94;;;16.65;24.91
13478;BME280;12598;62.382;17.344;2024-02-21T01:52:56;100181.53;;;16.59;24.85
13478;BME280;12598;62.382;17.344;2024-02-21T01:53:58;100183.59;;;16.65;25.06
13478;BME280;12598;62.382;17.344;2024-02-21T01:55:00;100182.22;;;16.61;24.96
13478;BME280;12598;62.382;17.344;2024-02-21T01:56:02;100173.91;;;16.64;24.69
13478;BME280;12598;62.382;17.344;2024-02-21T01:57:05;100161.31;;;16.57;25.09
13478;BME280;12598;62.382;17.344;2024-02-21T01:58:07;100181.91;;;16.64;25.11
13478;BME280;12598;62.382;17.344;2024-02-21T01:59:09;100166.03;;;16.63;25.05
13478;BME280;12598;62.382;17.344;2024-02-21T02:00:13;100171.25;;;16.64;25.09
13478;BME280;12598;62.382;17.344;2024-02-21T02:01:16;100161.00;;;16.60;25.06
13478;BME280;12598;62.382;17.344;2024-02-21T02:02:22;100154.13;;;16.57;25.06
13478;BME280;12598;62.382;17.344;2024-02-21T02:03:25;100159.56;;;16.65;24.90
13478;BME280;12598;62.382;17.344;2024-02-21T02:04:27;100163.25;;;16.64;25.18
13478;BME280;12598;62.382;17.344;2024-02-21T02:05:29;100157.91;;;16.64;24.92
13478;BME280;12598;62.382;17.344;2024-02-21T02:06:31;100157.91;;;16.64;25.21
13478;BME280;12598;62.382;17.344;2024-02-21T02:07:33;100157.91;;;16.64;25.01
13478;BME280;12598;62.382;17.344;2024-02-21T02:08:35;100156.91;;;16.65;24.81
13478;BME280;12598;62.382;17.344;2024-02-21T02:09:37;100155.22;;;16.64;25.15
13478;BME280;12598;62.382;17.344;2024-02-21T02:10:40;100148.22;;;16.63;25.50
13478;BME280;12598;62.382;17.344;2024-02-21T02:11:42;100150.72;;;16.65;25.40
13478;BME280;12598;62.382;17.344;2024-02-21T02:12:44;100151.72;;;16.64;25.12
13478;BME280;12598;62.382;17.344;2024-02-21T02:13:46;100158.72;;;16.65;25.14
13478;BME280;12598;62.382;17.344;2024-02-21T02:14:58;100141.50;;;16.59;25.08
13478;BME280;12598;62.382;17.344;2024-02-21T02:16:00;100157.59;;;16.67;25.10
13478;BME280;12598;62.382;17.344;2024-02-21T02:17:02;100163.94;;;16.66;24.84
13478;BME280;12598;62.382;17.344;2024-02-21T02:18:03;100151.56;;;16.65;25.21
13478;BME280;12598;62.382;17.344;2024-02-21T02:19:05;100154.25;;;16.65;25.40
13478;BME280;12598;62.382;17.344;2024-02-21T02:20:07;100157.72;;;16.66;25.46
13478;BME280;12598;62.382;17.344;2024-02-21T02:21:27;100154.91;;;16.67;25.37
13478;BME280;12598;62.382;17.344;2024-02-21T02:22:33;100157.72;;;16.66;25.07
13478;BME280;12598;62.382;17.344;2024-02-21T02:23:37;100158.28;;;16.69;25.01
13478;BME280;12598;62.382;17.344;2024-02-21T02:24:39;100157.59;;;16.67;24.95
13478;BME280;12598;62.382;17.344;2024-02-21T02:25:41;100159.56;;;16.65;25.07
13478;BME280;12598;62.382;17.344;2024-02-21T02:26:43;100156.91;;;16.65;25.02
13478;BME280;12598;62.382;17.344;2024-02-21T02:27:45;100149.03;;;16.64;25.10
13478;BME280;12598;62.382;17.344;2024-02-21T02:28:47;100160.56;;;16.64;25.29
13478;BME280;12598;62.382;17.344;2024-02-21T02:29:49;100150.19;;;16.61;25.17
13478;BME280;12598;62.382;17.344;2024-02-21T02:30:51;100153.56;;;16.63;25.40
13478;BME280;12598;62.382;17.344;2024-02-21T02:31:53;100151.56;;;16.65;25.34
13478;BME280;12598;62.382;17.344;2024-02-21T02:32:55;100150.72;;;16.65;25.39
13478;BME280;12598;62.382;17.344;2024-02-21T02:33:56;100144.56;;;16.64;25.53
13478;BME280;12598;62.382;17.344;2024-02-21T02:34:59;100144.56;;;16.64;25.29
13478;BME280;12598;62.382;17.344;2024-02-21T02:36:00;100146.38;;;16.64;25.50
13478;BME280;12598;62.382;17.344;2024-02-21T02:37:03;100142.72;;;16.65;25.37
13478;BME280;12598;62.382;17.344;2024-02-21T02:38:05;100126.69;;;16.65;25.28
13478;BME280;12598;62.382;17.344;2024-02-21T02:39:07;100132.03;;;16.65;25.58
13478;BME280;12598;62.382;17.344;2024-02-21T02:40:09;100128.53;;;16.64;25.14
13478;BME280;12598;62.382;17.344;2024-02-21T02:41:12;100119.31;;;16.59;25.39
13478;BME280;12598;62.382;17.344;2024-02-21T02:42:13;100132.19;;;16.63;25.20
13478;BME280;12598;62.382;17.344;2024-02-21T02:43:15;100124.50;;;16.60;25.35
13478;BME280;12598;62.382;17.344;2024-02-21T02:44:17;100136.53;;;16.64;25.18
13478;BME280;12598;62.382;17.344;2024-02-21T02:45:19;100130.84;;;16.59;25.16
13478;BME280;12598;62.382;17.344;2024-02-21T02:46:21;100139.22;;;16.64;25.15
13478;BME280;12598;62.382;17.344;2024-02-21T02:47:25;100134.69;;;16.65;25.26
13478;BME280;12598;62.382;17.344;2024-02-21T02:48:27;100135.56;;;16.65;25.48
13478;BME280;12598;62.382;17.344;2024-02-21T02:49:29;100139.22;;;16.64;25.46
13478;BME280;12598;62.382;17.344;2024-02-21T02:50:30;100133.88;;;16.64;25.29
13478;BME280;12598;62.382;17.344;2024-02-21T02:51:32;100130.22;;;16.65;25.59
13478;BME280;12598;62.382;17.344;2024-02-21T02:52:34;100117.78;;;16.56;25.34
13478;BME280;12598;62.382;17.344;2024-02-21T02:53:36;100128.53;;;16.64;25.19
13478;BME280;12598;62.382;17.344;2024-02-21T02:54:38;100128.53;;;16.64;25.46
13478;BME280;12598;62.382;17.344;2024-02-21T02:55:39;100130.22;;;16.65;25.28
13478;BME280;12598;62.382;17.344;2024-02-21T02:56:41;100129.38;;;16.65;25.70
13478;BME280;12598;62.382;17.344;2024-02-21T02:57:43;100123.19;;;16.64;25.29
13478;BME280;12598;62.382;17.344;2024-02-21T02:58:45;100131.03;;;16.66;25.50
13478;BME280;12598;62.382;17.344;2024-02-21T02:59:51;100128.53;;;16.64;25.42
13478;BME280;12598;62.382;17.344;2024-02-21T03:00:53;100114.81;;;16.59;25.55
13478;BME280;12598;62.382;17.344;2024-02-21T03:01:54;100129.22;;;16.66;25.48
13478;BME280;12598;62.382;17.344;2024-02-21T03:02:56;100128.38;;;16.66;25.41
13478;BME280;12598;62.382;17.344;2024-02-21T03:03:58;100120.34;;;16.66;25.54
13478;BME280;12598;62.382;17.344;2024-02-21T03:05:00;100121.22;;;16.66;25.35
13478;BME280;12598;62.382;17.344;2024-02-21T03:06:02;100120.34;;;16.66;25.43
13478;BME280;12598;62.382;17.344;2024-02-21T03:07:04;100130.22;;;16.65;25.72
13478;BME280;12598;62.382;17.344;2024-02-21T03:08:06;100131.03;;;16.66;25.58
13478;BME280;12598;62.382;17.344;2024-02-21T03:09:08;100124.88;;;16.65;25.66
13478;BME280;12598;62.382;17.344;2024-02-21T03:10:11;100123.19;;;16.64;25.46
13478;BME280;12598;62.382;17.344;2024-02-21T03:11:13;100114.81;;;16.59;25.36
13478;BME280;12598;62.382;17.344;2024-02-21T03:12:15;100112.16;;;16.59;25.47
13478;BME280;12598;62.382;17.344;2024-02-21T03:13:26;100125.56;;;16.67;25.39
13478;BME280;12598;62.382;17.344;2024-02-21T03:14:31;100130.03;;;16.67;25.79
13478;BME280;12598;62.382;17.344;2024-02-21T03:15:33;100130.91;;;16.67;25.36
13478;BME280;12598;62.382;17.344;2024-02-21T03:16:35;100131.72;;;16.68;25.35
13478;BME280;12598;62.382;17.344;2024-02-21T03:17:37;100130.91;;;16.67;25.29
13478;BME280;12598;62.382;17.344;2024-02-21T03:18:38;100129.22;;;16.66;25.64
13478;BME280;12598;62.382;17.344;2024-02-21T03:19:41;100137.22;;;16.66;25.62
13478;BME280;12598;62.382;17.344;2024-02-21T03:20:42;100126.56;;;16.66;25.46
13478;BME280;12598;62.382;17.344;2024-02-21T03:21:44;100123.50;;;16.61;25.58
13478;BME280;12598;62.382;17.344;2024-02-21T03:22:46;100130.91;;;16.67;25.75
13478;BME280;12598;62.382;17.344;2024-02-21T03:23:48;100122.03;;;16.67;25.74
13478;BME280;12598;62.382;17.344;2024-02-21T03:24:49;100122.88;;;16.67;25.79
13478;BME280;12598;62.382;17.344;2024-02-21T03:25:51;100133.56;;;16.67;25.74
13478;BME280;12598;62.382;17.344;2024-02-21T03:26:53;100133.56;;;16.67;25.64
13478;BME280;12598;62.382;17.344;2024-02-21T03:27:55;100112.66;;;16.63;25.67
13478;BME280;12598;62.382;17.344;2024-02-21T03:28:56;100123.72;;;16.68;25.84
13478;BME280;12598;62.382;17.344;2024-02-21T03:29:58;100112.53;;;16.64;25.45
13478;BME280;12598;62.382;17.344;2024-02-21T03:31:00;100113.03;;;16.68;25.70
13478;BME280;12598;62.382;17.344;2024-02-21T03:32:02;100115.56;;;16.69;25.47
13478;BME280;12598;62.382;17.344;2024-02-21T03:33:04;100113.72;;;16.70;25.60
13478;BME280;12598;62.382;17.344;2024-02-21T03:34:06;100112.91;;;16.69;25.57
13478;BME280;12598;62.382;17.344;2024-02-21T03:35:08;100114.56;;;16.70;25.45
13478;BME280;12598;62.382;17.344;2024-02-21T03:36:14;100112.91;;;16.69;25.77
13478;BME280;12598;62.382;17.344;2024-02-21T03:37:16;100108.25;;;16.71;25.69
13478;BME280;12598;62.382;17.344;2024-02-21T03:38:19;100114.56;;;16.70;25.76
13478;BME280;12598;62.382;17.344;2024-02-21T03:39:20;100119.91;;;16.70;25.82
13478;BME280;12598;62.382;17.344;2024-02-21T03:40:25;100125.94;;;16.72;25.80
13478;BME280;12598;62.382;17.344;2024-02-21T03:41:27;100111.38;;;16.67;25.91
13478;BME280;12598;62.382;17.344;2024-02-21T03:42:29;100118.91;;;16.71;25.83
13478;BME280;12598;62.382;17.344;2024-02-21T03:43:33;100117.06;;;16.72;25.53
13478;BME280;12598;62.382;17.344;2024-02-21T03:44:35;100118.91;;;16.71;25.58
13478;BME280;12598;62.382;17.344;2024-02-21T03:45:37;100114.56;;;16.70;25.50
13478;BME280;12598;62.382;17.344;2024-02-21T03:46:38;100122.41;;;16.72;25.65
13478;BME280;12598;62.382;17.344;2024-02-21T03:47:40;100118.06;;;16.71;25.49
13478;BME280;12598;62.382;17.344;2024-02-21T03:48:42;100115.56;;;16.69;25.80
13478;BME280;12598;62.382;17.344;2024-02-21T03:49:44;100116.25;;;16.71;25.60
13478;BME280;12598;62.382;17.344;2024-02-21T03:50:46;100118.91;;;16.71;25.89
13478;BME280;12598;62.382;17.344;2024-02-21T03:51:48;100117.25;;;16.70;25.84
13478;BME280;12598;62.382;17.344;2024-02-21T03:52:49;100115.88;;;16.66;25.61
13478;BME280;12598;62.382;17.344;2024-02-21T03:53:51;100112.91;;;16.69;25.63
13478;BME280;12598;62.382;17.344;2024-02-21T03:54:53;100108.00;;;16.65;25.85
13478;BME280;12598;62.382;17.344;2024-02-21T03:55:56;100120.59;;;16.72;25.58
13478;BME280;12598;62.382;17.344;2024-02-21T03:57:01;100094.16;;;16.61;25.80
13478;BME280;12598;62.382;17.344;2024-02-21T03:58:04;100103.22;;;16.68;25.68
13478;BME280;12598;62.382;17.344;2024-02-21T03:59:07;100102.66;;;16.65;25.40
13478;BME280;12598;62.382;17.344;2024-02-21T04:00:09;100088.81;;;16.61;25.75
13478;BME280;12598;62.382;17.344;2024-02-21T04:01:15;100109.91;;;16.72;25.57
13478;BME280;12598;62.382;17.344;2024-02-21T04:02:17;100105.41;;;16.73;25.42
13478;BME280;12598;62.382;17.344;2024-02-21T04:03:19;100106.25;;;16.73;25.87
13478;BME280;12598;62.382;17.344;2024-02-21T04:04:21;100110.75;;;16.73;25.73
13478;BME280;12598;62.382;17.344;2024-02-21T04:05:23;100116.94;;;16.73;25.52
13478;BME280;12598;62.382;17.344;2024-02-21T04:06:25;100109.91;;;16.72;25.84
13478;BME280;12598;62.382;17.344;2024-02-21T04:07:27;100109.91;;;16.72;25.81
13478;BME280;12598;62.382;17.344;2024-02-21T04:08:29;100105.56;;;16.71;25.88
13478;BME280;12598;62.382;17.344;2024-02-21T04:09:31;100107.38;;;16.71;25.70
13478;BME280;12598;62.382;17.344;2024-02-21T04:10:32;100110.91;;;16.71;25.85
13478;BME280;12598;62.382;17.344;2024-02-21T04:11:34;100097.56;;;16.71;25.81
13478;BME280;12598;62.382;17.344;2024-02-21T04:12:37;100102.91;;;16.71;25.72
13478;BME280;12598;62.382;17.344;2024-02-21T04:13:39;100090.00;;;16.67;25.70
13478;BME280;12598;62.382;17.344;2024-02-21T04:14:41;100099.25;;;16.72;25.54
13478;BME280;12598;62.382;17.344;2024-02-21T04:15:47;100100.06;;;16.73;25.67
13478;BME280;12598;62.382;17.344;2024-02-21T04:16:49;100097.41;;;16.73;25.62
13478;BME280;12598;62.382;17.344;2024-02-21T04:17:51;100084.00;;;16.65;25.57
13478;BME280;12598;62.382;17.344;2024-02-21T04:18:54;100088.03;;;16.69;25.95
13478;BME280;12598;62.382;17.344;2024-02-21T04:20:02;100082.38;;;16.72;25.75
13478;BME280;12598;62.382;17.344;2024-02-21T04:21:11;100086.56;;;16.74;25.67
13478;BME280;12598;62.382;17.344;2024-02-21T04:22:17;100082.91;;;16.75;25.60
13478;BME280;12598;62.382;17.344;2024-02-21T04:23:19;100080.38;;;16.74;25.77
13478;BME280;12598;62.382;17.344;2024-02-21T04:24:20;100073.38;;;16.73;25.88
13478;BME280;12598;62.382;17.344;2024-02-21T04:25:22;100077.88;;;16.72;25.88
13478;BME280;12598;62.382;17.344;2024-02-21T04:26:24;100069.81;;;16.64;25.87
13478;BME280;12598;62.382;17.344;2024-02-21T04:27:26;100076.22;;;16.71;25.67
13478;BME280;12598;62.382;17.344;2024-02-21T04:28:28;100079.88;;;16.70;25.87
13478;BME280;12598;62.382;17.344;2024-02-21T04:29:30;100086.03;;;16.71;25.58
13478;BME280;12598;62.382;17.344;2024-02-21T04:30:32;100085.22;;;16.70;25.74
13478;BME280;12598;62.382;17.344;2024-02-21T04:31:34;100084.34;;;16.70;25.76
13478;BME280;12598;62.382;17.344;2024-02-21T04:32:36;100087.88;;;16.70;25.94
13478;BME280;12598;62.382;17.344;2024-02-21T04:33:38;100085.22;;;16.70;25.83
13478;BME280;12598;62.382;17.344;2024-02-21T04:34:41;100081.69;;;16.70;25.66
13478;BME280;12598;62.382;17.344;2024-02-21T04:35:43;100082.53;;;16.70;26.18
13478;BME280;12598;62.382;17.344;2024-02-21T04:36:45;100074.53;;;16.70;25.96
13478;BME280;12598;62.382;17.344;2024-02-21T04:37:47;100079.88;;;16.70;26.02
13478;BME280;12598;62.382;17.344;2024-02-21T04:38:49;100079.03;;;16.70;25.65
13478;BME280;12598;62.382;17.344;2024-02-21T04:39:51;100087.88;;;16.70;26.00
13478;BME280;12598;62.382;17.344;2024-02-21T04:40:54;100083.53;;;16.69;26.03
13478;BME280;12598;62.382;17.344;2024-02-21T04:41:56;100080.88;;;16.69;25.59
13478;BME280;12598;62.382;17.344;2024-02-21T04:42:58;100079.88;;;16.70;25.95
13478;BME280;12598;62.382;17.344;2024-02-21T04:44:00;100083.53;;;16.69;26.25
13478;BME280;12598;62.382;17.344;2024-02-21T04:45:02;100076.53;;;16.68;25.95
13478;BME280;12598;62.382;17.344;2024-02-21T04:46:04;100077.19;;;16.70;26.09
13478;BME280;12598;62.382;17.344;2024-02-21T04:47:06;100081.69;;;16.70;25.75
13478;BME280;12598;62.382;17.344;2024-02-21T04:48:08;100081.56;;;16.71;25.79
13478;BME280;12598;62.382;17.344;2024-02-21T04:49:10;100074.84;;;16.67;25.77
13478;BME280;12598;62.382;17.344;2024-02-21T04:50:12;100079.88;;;16.70;25.98
13478;BME280;12598;62.382;17.344;2024-02-21T04:51:14;100083.38;;;16.71;26.08
13478;BME280;12598;62.382;17.344;2024-02-21T04:52:16;100079.88;;;16.70;25.84
13478;BME280;12598;62.382;17.344;2024-02-21T04:53:18;100066.84;;;16.67;25.72
13478;BME280;12598;62.382;17.344;2024-02-21T04:54:20;100083.53;;;16.69;25.74
13478;BME280;12598;62.382;17.344;2024-02-21T04:55:22;100075.53;;;16.69;25.91
13478;BME280;12598;62.382;17.344;2024-02-21T04:56:23;100070.34;;;16.68;25.84
13478;BME280;12598;62.382;17.344;2024-02-21T04:57:26;100074.84;;;16.67;26.12
13478;BME280;12598;62.382;17.344;2024-02-21T04:58:28;100084.34;;;16.70;26.13
13478;BME280;12598;62.382;17.344;2024-02-21T04:59:29;100084.34;;;16.70;26.02
13478;BME280;12598;62.382;17.344;2024-02-21T05:00:32;100079.03;;;16.70;25.84
13478;BME280;12598;62.382;17.344;2024-02-21T05:01:33;100080.56;;;16.72;26.07
13478;BME280;12598;62.382;17.344;2024-02-21T05:02:35;100074.84;;;16.67;25.75
13478;BME280;12598;62.382;17.344;2024-02-21T05:03:38;100076.53;;;16.68;26.05
13478;BME280;12598;62.382;17.344;2024-02-21T05:04:40;100081.56;;;16.71;25.78
13478;BME280;12598;62.382;17.344;2024-02-21T05:05:43;100078.03;;;16.71;25.88
13478;BME280;12598;62.382;17.344;2024-02-21T05:06:45;100074.00;;;16.67;25.77
13478;BME280;12598;62.382;17.344;2024-02-21T05:07:47;100076.22;;;16.71;25.67
13478;BME280;12598;62.382;17.344;2024-02-21T05:08:49;100082.53;;;16.70;25.89
13478;BME280;12598;62.382;17.344;2024-02-21T05:09:51;100081.56;;;16.71;25.76
13478;BME280;12598;62.382;17.344;2024-02-21T05:10:52;100084.34;;;16.70;26.00
13478;BME280;12598;62.382;17.344;2024-02-21T05:11:55;100081.69;;;16.70;25.90
13478;BME280;12598;62.382;17.344;2024-02-21T05:12:57;100087.88;;;16.70;25.74
13478;BME280;12598;62.382;17.344;2024-02-21T05:13:59;100068.97;;;16.64;25.92
13478;BME280;12598;62.382;17.344;2024-02-21T05:15:03;100086.88;;;16.71;25.70
13478;BME280;12598;62.382;17.344;2024-02-21T05:16:05;100089.38;;;16.73;25.94
13478;BME280;12598;62.382;17.344;2024-02-21T05:17:07;100091.22;;;16.72;25.63
13478;BME280;12598;62.382;17.344;2024-02-21T05:18:09;100082.38;;;16.72;26.12
13478;BME280;12598;62.382;17.344;2024-02-21T05:19:11;100086.88;;;16.71;25.71
13478;BME280;12598;62.382;17.344;2024-02-21T05:20:13;100084.34;;;16.70;26.01
13478;BME280;12598;62.382;17.344;2024-02-21T05:21:15;100069.81;;;16.64;26.16